createdAt,value
2019-04-06T00:00:47.614Z,17.03
2019-04-06T00:03:18.043Z,17.97
2019-04-06T00:05:48.571Z,17.20
2019-04-06T00:08:19.062Z,18.03
2019-04-06T00:10:49.614Z,22.37
2019-04-06T00:13:20.262Z,19.60
2019-04-06T00:15:50.805Z,20.07
2019-04-06T00:18:21.313Z,15.87
2019-04-06T00:20:51.740Z,21.47
2019-04-06T00:23:22.352Z,17.83
2019-04-06T00:25:52.912Z,19.30
2019-04-06T00:28:23.570Z,17.67
2019-04-06T00:31:01.319Z,19.80
2019-04-06T00:33:31.765Z,18.13
2019-04-06T00:36:02.287Z,19.27
2019-04-06T00:38:33.853Z,18.97
2019-04-06T00:41:04.564Z,19.00
2019-04-06T00:43:35.154Z,15.60
2019-04-06T00:46:05.745Z,20.43
2019-04-06T00:48:36.188Z,17.63
2019-04-06T00:51:06.600Z,20.53
2019-04-06T00:53:37.049Z,18.17
2019-04-06T00:56:07.508Z,19.63
2019-04-06T00:58:37.961Z,19.70
2019-04-06T01:01:08.377Z,19.57
2019-04-06T01:03:39.716Z,19.70
2019-04-06T01:06:10.104Z,18.50
2019-04-06T01:08:40.547Z,20.00
2019-04-06T01:11:10.954Z,21.60
2019-04-06T01:13:41.465Z,21.67
2019-04-06T01:16:11.862Z,21.83
2019-04-06T01:18:42.399Z,21.70
2019-04-06T01:21:12.968Z,19.80
2019-04-06T01:23:43.434Z,20.50
2019-04-06T01:26:13.884Z,19.47
2019-04-06T01:28:45.446Z,23.70
2019-04-06T01:31:15.962Z,22.37
2019-04-06T01:33:46.849Z,19.67
2019-04-06T01:36:17.257Z,23.63
2019-04-06T01:38:47.761Z,25.63
2019-04-06T01:41:18.506Z,22.67
2019-04-06T01:43:48.997Z,24.53
2019-04-06T01:46:19.501Z,24.90
2019-04-06T01:48:50.044Z,24.53
2019-04-06T01:51:20.509Z,25.93
2019-04-06T01:53:50.934Z,23.47
2019-04-06T01:56:21.348Z,31.10
2019-04-06T01:58:51.858Z,27.47
2019-04-06T02:01:29.503Z,24.20
2019-04-06T02:04:00.014Z,29.60
2019-04-06T02:06:30.434Z,25.63
2019-04-06T02:09:00.938Z,25.97
2019-04-06T02:11:32.964Z,30.83
2019-04-06T02:14:03.632Z,24.00
2019-04-06T02:16:34.146Z,29.97
2019-04-06T02:19:04.822Z,28.00
2019-04-06T02:21:35.227Z,26.30
2019-04-06T02:24:05.781Z,31.17
2019-04-06T02:26:36.420Z,28.40
2019-04-06T02:29:06.892Z,26.60
2019-04-06T02:31:54.998Z,29.63
2019-04-06T02:34:53.432Z,31.13
2019-04-06T02:37:36.506Z,33.93
2019-04-06T02:40:34.247Z,30.93
2019-04-06T02:43:14.120Z,33.03
2019-04-06T02:45:44.437Z,33.40
2019-04-06T02:48:14.871Z,27.97
2019-04-06T02:50:45.245Z,30.40
2019-04-06T02:53:15.705Z,30.73
2019-04-06T02:55:46.077Z,31.17
2019-04-06T02:58:17.596Z,29.53
2019-04-06T03:00:47.936Z,27.87
2019-04-06T03:03:21.297Z,34.57
2019-04-06T03:05:53.765Z,31.77
2019-04-06T03:08:24.221Z,33.43
2019-04-06T03:10:54.588Z,32.03
2019-04-06T03:13:25.033Z,33.57
2019-04-06T03:15:55.410Z,35.30
2019-04-06T03:18:25.742Z,35.47
2019-04-06T03:20:56.256Z,30.23
2019-04-06T03:23:26.645Z,30.20
2019-04-06T03:25:57.171Z,32.27
2019-04-06T03:28:27.507Z,33.23
2019-04-06T03:30:57.882Z,37.03
2019-04-06T03:33:28.376Z,33.13
2019-04-06T03:35:58.932Z,34.40
2019-04-06T03:38:33.485Z,32.03
2019-04-06T03:41:04.178Z,33.00
2019-04-06T03:43:34.736Z,31.70
2019-04-06T03:46:05.118Z,31.87
2019-04-06T03:48:35.713Z,33.10
2019-04-06T03:51:06.062Z,34.03
2019-04-06T03:53:36.302Z,33.13
2019-04-06T03:56:06.732Z,32.20
2019-04-06T03:58:39.221Z,30.50
2019-04-06T04:01:09.591Z,36.03
2019-04-06T04:03:40.385Z,26.03
2019-04-06T04:06:10.928Z,30.10
2019-04-06T04:08:41.380Z,26.50
2019-04-06T04:11:11.764Z,29.53
2019-04-06T04:13:42.120Z,30.13
2019-04-06T04:16:12.981Z,29.40
2019-04-06T04:18:43.565Z,30.47
2019-04-06T04:21:14.108Z,30.50
2019-04-06T04:23:44.573Z,35.27
2019-04-06T04:26:15.090Z,31.67
2019-04-06T04:28:45.480Z,37.47
2019-04-06T04:31:16.157Z,41.27
2019-04-06T04:33:50.305Z,36.60
2019-04-06T04:36:20.609Z,43.10
2019-04-06T04:38:50.929Z,46.80
2019-04-06T04:41:21.233Z,50.20
2019-04-06T04:43:51.501Z,51.73
2019-04-06T04:46:22.386Z,52.43
2019-04-06T04:48:54.212Z,54.70
2019-04-06T04:51:24.738Z,58.07
2019-04-06T04:53:58.094Z,62.43
2019-04-06T04:56:28.594Z,59.53
2019-04-06T04:58:58.989Z,57.43
2019-04-06T05:01:29.509Z,56.83
2019-04-06T05:04:03.138Z,64.90
2019-04-06T05:06:33.817Z,66.43
2019-04-06T05:09:10.260Z,64.50
2019-04-06T05:11:44.228Z,65.47
2019-04-06T05:14:50.359Z,62.87
2019-04-06T05:17:20.728Z,59.93
2019-04-06T05:19:51.090Z,63.63
2019-04-06T05:22:21.548Z,60.47
2019-04-06T05:24:51.998Z,65.23
2019-04-06T05:27:22.582Z,63.43
2019-04-06T05:29:53.960Z,62.03
2019-04-06T05:32:24.384Z,59.07
2019-04-06T05:34:54.811Z,59.30
2019-04-06T05:37:25.123Z,55.93
2019-04-06T05:39:55.550Z,64.70
2019-04-06T05:42:25.869Z,56.67
2019-04-06T05:44:56.192Z,55.27
2019-04-06T05:47:26.657Z,59.50
2019-04-06T05:49:56.956Z,61.37
2019-04-06T05:52:28.402Z,61.10
2019-04-06T05:54:58.800Z,62.77
2019-04-06T05:57:31.817Z,66.23
2019-04-06T06:00:01.036Z,60.53
2019-04-06T06:02:31.448Z,57.27
2019-04-06T06:05:01.727Z,58.97
2019-04-06T06:07:32.019Z,57.40
2019-04-06T06:10:02.576Z,63.17
2019-04-06T06:12:32.932Z,59.77
2019-04-06T06:15:03.284Z,63.90
2019-04-06T06:17:33.574Z,67.27
2019-04-06T06:20:03.972Z,66.70
2019-04-06T06:22:34.718Z,63.33
2019-04-06T06:25:06.509Z,65.13
2019-04-06T06:27:36.877Z,65.20
2019-04-06T06:30:09.045Z,70.20
2019-04-06T06:32:39.402Z,62.60
2019-04-06T06:35:09.943Z,64.50
2019-04-06T06:37:40.247Z,68.53
2019-04-06T06:40:10.665Z,66.10
2019-04-06T06:42:41.100Z,64.87
2019-04-06T06:45:15.573Z,68.83
2019-04-06T06:47:48.990Z,69.80
2019-04-06T06:50:19.438Z,68.13
2019-04-06T06:52:52.797Z,65.40
2019-04-06T06:55:23.106Z,68.17
2019-04-06T06:57:55.883Z,61.17
2019-04-06T07:00:25.497Z,60.57
2019-04-06T07:02:57.567Z,62.13
2019-04-06T07:05:28.175Z,70.53
2019-04-06T07:08:00.404Z,67.50
2019-04-06T07:10:37.024Z,68.40
2019-04-06T07:13:07.452Z,62.63
2019-04-06T07:15:37.832Z,67.73
2019-04-06T07:18:08.355Z,61.27
2019-04-06T07:20:45.010Z,58.77
2019-04-06T07:23:16.714Z,61.53
2019-04-06T07:25:56.873Z,61.37
2019-04-06T07:28:21.238Z,60.17
2019-04-06T07:30:51.593Z,71.37
2019-04-06T07:33:21.911Z,63.20
2019-04-06T07:35:52.331Z,74.57
2019-04-06T07:38:22.844Z,62.93
2019-04-06T07:40:55.066Z,72.87
2019-04-06T07:43:30.651Z,74.53
2019-04-06T07:46:01.375Z,74.60
2019-04-06T07:48:31.845Z,73.77
2019-04-06T07:51:02.719Z,74.13
2019-04-06T07:53:39.504Z,70.40
2019-04-06T07:56:21.040Z,72.00
2019-04-06T07:58:51.671Z,66.53
2019-04-06T08:01:22.290Z,67.80
2019-04-06T08:03:52.772Z,68.47
2019-04-06T08:06:26.151Z,63.13
2019-04-06T08:08:57.333Z,65.73
2019-04-06T08:11:27.908Z,66.57
2019-04-06T08:13:58.293Z,92.87
2019-04-06T08:16:28.766Z,63.07
2019-04-06T08:18:59.308Z,65.30
2019-04-06T08:21:29.779Z,67.23
2019-04-06T08:24:00.160Z,71.23
2019-04-06T08:26:31.842Z,73.87
2019-04-06T08:29:05.854Z,77.27
2019-04-06T08:31:36.270Z,73.13
2019-04-06T08:34:06.817Z,72.43
2019-04-06T08:36:37.369Z,67.93
2019-04-06T08:39:09.629Z,72.73
2019-04-06T08:41:40.130Z,74.50
2019-04-06T08:44:11.723Z,75.43
2019-04-06T08:46:42.139Z,74.90
2019-04-06T08:49:12.501Z,77.47
2019-04-06T08:51:43.010Z,81.00
2019-04-06T08:54:14.762Z,77.03
2019-04-06T08:56:46.749Z,80.07
2019-04-06T08:59:17.472Z,83.50
2019-04-06T09:01:47.874Z,78.57
2019-04-06T09:04:18.388Z,81.20
2019-04-06T09:06:49.705Z,84.50
2019-04-06T09:09:20.106Z,84.93
2019-04-06T09:11:50.642Z,86.17
2019-04-06T09:14:21.123Z,86.77
2019-04-06T09:16:51.558Z,85.17
2019-04-06T09:19:21.946Z,92.07
2019-04-06T09:21:52.376Z,88.33
2019-04-06T09:24:22.804Z,97.97
2019-04-06T09:26:53.203Z,96.50
2019-04-06T09:29:24.613Z,95.23
2019-04-06T09:31:55.442Z,90.13
2019-04-06T09:34:25.737Z,100.13
2019-04-06T09:36:56.230Z,95.27
2019-04-06T09:39:26.604Z,104.67
2019-04-06T09:41:56.940Z,101.83
2019-04-06T09:44:49.187Z,108.43
2019-04-06T09:47:28.269Z,101.37
2019-04-06T09:50:16.022Z,106.80
2019-04-06T09:53:06.233Z,118.70
2019-04-06T09:55:49.998Z,117.53
2019-04-06T09:58:48.611Z,112.63
2019-04-06T10:01:47.222Z,103.70
2019-04-06T10:04:45.556Z,114.43
2019-04-06T10:07:28.361Z,115.07
2019-04-06T10:10:11.255Z,116.60
2019-04-06T10:13:00.894Z,116.77
2019-04-06T10:15:53.097Z,112.37
2019-04-06T10:18:35.201Z,115.70
2019-04-06T10:21:33.365Z,118.97
2019-04-06T10:24:28.512Z,127.60
2019-04-06T10:27:24.114Z,117.03
2019-04-06T10:30:12.021Z,123.70
2019-04-06T10:33:01.382Z,130.73
2019-04-06T10:36:03.184Z,128.23
2019-04-06T10:38:55.559Z,129.73
2019-04-06T10:41:55.169Z,132.50
2019-04-06T10:44:42.944Z,131.40
2019-04-06T10:47:32.387Z,141.83
2019-04-06T10:50:21.746Z,129.70
2019-04-06T10:53:08.711Z,123.33
2019-04-06T10:55:57.166Z,132.70
2019-04-06T10:58:44.677Z,157.80
2019-04-06T11:01:32.820Z,136.43
2019-04-06T11:04:25.622Z,134.20
2019-04-06T11:07:30.698Z,141.43
2019-04-06T11:10:19.173Z,137.17
2019-04-06T11:12:59.276Z,141.63
2019-04-06T11:15:47.703Z,138.63
2019-04-06T11:18:53.967Z,144.60
2019-04-06T11:21:33.674Z,143.33
2019-04-06T11:24:27.978Z,134.20
2019-04-06T11:27:26.468Z,145.10
2019-04-06T11:30:19.041Z,136.80
2019-04-06T11:33:19.432Z,154.37
2019-04-06T11:36:03.788Z,138.63
2019-04-06T11:38:51.999Z,133.43
2019-04-06T11:41:40.455Z,143.23
2019-04-06T11:44:22.483Z,139.87
2019-04-06T11:47:00.089Z,152.13
2019-04-06T11:50:07.561Z,142.93
2019-04-06T11:52:49.018Z,139.87
2019-04-06T11:55:32.424Z,148.37
2019-04-06T11:58:14.944Z,148.47
2019-04-06T12:01:10.154Z,145.43
2019-04-06T12:03:48.958Z,134.87
2019-04-06T12:06:40.284Z,144.27
2019-04-06T12:09:29.659Z,148.50
2019-04-06T12:12:12.775Z,143.50
2019-04-06T12:15:02.181Z,144.53
2019-04-06T12:17:51.804Z,132.43
2019-04-06T12:20:40.577Z,133.93
2019-04-06T12:23:33.419Z,137.23
2019-04-06T12:26:38.771Z,133.13
2019-04-06T12:29:29.115Z,131.50
2019-04-06T12:32:25.603Z,119.17
2019-04-06T12:35:06.636Z,133.37
2019-04-06T12:37:59.264Z,130.40
2019-04-06T12:40:43.526Z,115.50
2019-04-06T12:43:38.934Z,121.63
2019-04-06T12:46:22.011Z,126.53
2019-04-06T12:49:17.665Z,128.87
2019-04-06T12:52:06.111Z,127.03
2019-04-06T12:55:07.728Z,142.40
2019-04-06T12:57:52.130Z,131.00
2019-04-06T13:00:56.887Z,118.30
2019-04-06T13:03:46.570Z,125.90
2019-04-06T13:06:48.787Z,127.07
2019-04-06T13:09:32.913Z,114.40
2019-04-06T13:12:25.616Z,125.07
2019-04-06T13:15:12.412Z,123.03
2019-04-06T13:18:04.810Z,121.17
2019-04-06T13:20:56.297Z,127.37
2019-04-06T13:23:43.413Z,125.13
2019-04-06T13:26:32.793Z,126.67
2019-04-06T13:29:34.538Z,127.00
2019-04-06T13:32:31.267Z,123.07
2019-04-06T13:35:24.243Z,128.50
2019-04-06T13:38:06.011Z,128.07
2019-04-06T13:40:57.565Z,117.77
2019-04-06T13:43:35.988Z,122.97
2019-04-06T13:46:18.612Z,125.30
2019-04-06T13:49:12.835Z,129.97
2019-04-06T13:52:11.120Z,120.10
2019-04-06T13:55:02.339Z,120.07
2019-04-06T13:57:43.888Z,120.40
2019-04-06T14:00:39.686Z,108.53
2019-04-06T14:03:27.983Z,105.53
2019-04-06T14:06:22.031Z,100.53
2019-04-06T14:08:59.078Z,109.83
2019-04-06T14:11:47.370Z,110.57
2019-04-06T14:14:41.208Z,118.33
2019-04-06T14:17:31.747Z,111.30
2019-04-06T14:20:21.399Z,111.90
2019-04-06T14:23:01.693Z,113.67
2019-04-06T14:25:53.259Z,109.57
2019-04-06T14:28:45.602Z,108.97
2019-04-06T14:31:30.811Z,105.50
2019-04-06T14:34:35.733Z,108.60
2019-04-06T14:37:18.576Z,106.93
2019-04-06T14:40:38.185Z,97.53
2019-04-06T14:43:29.333Z,102.40
2019-04-06T14:46:10.448Z,113.37
2019-04-06T14:48:55.518Z,109.67
2019-04-06T14:51:33.782Z,106.57
2019-04-06T14:54:32.430Z,106.03
2019-04-06T14:57:11.829Z,104.00
2019-04-06T15:00:13.431Z,97.73
2019-04-06T15:02:57.838Z,95.97
2019-04-06T15:05:41.870Z,91.87
2019-04-06T15:08:22.727Z,95.37
2019-04-06T15:11:00.478Z,100.90
2019-04-06T15:13:49.876Z,94.33
2019-04-06T15:16:37.870Z,97.37
2019-04-06T15:19:18.229Z,100.97
2019-04-06T15:22:06.636Z,98.20
2019-04-06T15:24:51.104Z,95.83
2019-04-06T15:27:32.787Z,96.00
2019-04-06T15:30:21.633Z,93.13
2019-04-06T15:32:59.167Z,102.87
2019-04-06T15:35:57.503Z,95.57
2019-04-06T15:38:50.008Z,101.43
2019-04-06T15:41:39.302Z,103.20
2019-04-06T15:44:37.922Z,98.07
2019-04-06T15:47:39.092Z,100.23
2019-04-06T15:50:41.687Z,96.23
2019-04-06T15:53:19.829Z,92.57
2019-04-06T15:56:12.457Z,95.40
2019-04-06T15:58:56.856Z,98.20
2019-04-06T16:01:38.730Z,93.20
2019-04-06T16:04:48.176Z,106.43
2019-04-06T16:07:36.199Z,91.17
2019-04-06T16:10:38.092Z,102.60
2019-04-06T16:13:26.887Z,98.90
2019-04-06T16:16:25.469Z,99.27
2019-04-06T16:19:17.556Z,93.93
2019-04-06T16:22:19.304Z,94.70
2019-04-06T16:25:12.322Z,85.77
2019-04-06T16:28:02.609Z,97.83
2019-04-06T16:31:04.157Z,90.40
2019-04-06T16:33:50.570Z,89.83
2019-04-06T16:36:45.634Z,97.53
2019-04-06T16:39:27.859Z,99.30
2019-04-06T16:42:17.080Z,88.47
2019-04-06T16:45:05.059Z,93.77
2019-04-06T16:48:09.336Z,91.13
2019-04-06T16:50:57.192Z,94.30
2019-04-06T16:53:45.338Z,91.50
2019-04-06T16:56:36.490Z,93.83
2019-04-06T16:59:14.700Z,89.57
2019-04-06T17:01:53.389Z,95.80
2019-04-06T17:04:40.622Z,87.30
2019-04-06T17:07:29.470Z,90.07
2019-04-06T17:10:23.799Z,96.10
2019-04-06T17:13:24.771Z,97.80
2019-04-06T17:16:17.137Z,91.37
2019-04-06T17:19:06.500Z,94.07
2019-04-06T17:21:52.098Z,97.37
2019-04-06T17:24:35.073Z,95.13
2019-04-06T17:27:36.223Z,88.20
2019-04-06T17:30:18.701Z,96.37
2019-04-06T17:33:08.299Z,88.10
2019-04-06T17:36:00.667Z,89.80
2019-04-06T17:38:53.307Z,93.47
2019-04-06T17:41:48.724Z,93.07
2019-04-06T17:44:35.974Z,96.17
2019-04-06T17:47:24.459Z,104.33
2019-04-06T17:50:12.294Z,91.43
2019-04-06T17:53:18.579Z,95.00
2019-04-06T17:56:06.919Z,99.13
2019-04-06T17:58:47.431Z,98.10
2019-04-06T18:01:35.584Z,102.13
2019-04-06T18:04:25.126Z,102.83
2019-04-06T18:07:09.290Z,103.63
2019-04-06T18:09:56.642Z,97.03
2019-04-06T18:12:46.100Z,97.80
2019-04-06T18:15:17.791Z,100.60
2019-04-06T18:17:48.320Z,95.87
2019-04-06T18:20:18.810Z,103.23
2019-04-06T18:22:50.184Z,101.83
2019-04-06T18:25:22.017Z,106.70
2019-04-06T18:27:52.629Z,110.40
2019-04-06T18:30:24.301Z,99.00
2019-04-06T18:33:02.240Z,103.90
2019-04-06T18:35:37.285Z,107.27
2019-04-06T18:38:36.552Z,113.47
2019-04-06T18:41:10.174Z,107.80
2019-04-06T18:43:42.256Z,108.67
2019-04-06T18:46:15.939Z,109.27
2019-04-06T18:48:50.001Z,106.20
2019-04-06T18:51:20.721Z,103.90
2019-04-06T18:53:55.965Z,108.07
2019-04-06T18:56:29.266Z,107.10
2019-04-06T18:59:04.474Z,107.87
2019-04-06T19:01:43.064Z,101.70
2019-04-06T19:04:15.965Z,108.97
2019-04-06T19:06:46.768Z,115.17
2019-04-06T19:09:23.734Z,109.13
2019-04-06T19:11:58.835Z,113.40
2019-04-06T19:14:30.965Z,105.13
2019-04-06T19:17:08.471Z,108.90
2019-04-06T19:19:39.657Z,111.97
2019-04-06T19:22:13.760Z,110.03
2019-04-06T19:24:45.122Z,105.97
2019-04-06T19:27:24.991Z,114.63
2019-04-06T19:29:58.872Z,102.23
2019-04-06T19:32:29.541Z,118.00
2019-04-06T19:35:04.115Z,110.07
2019-04-06T19:37:39.610Z,99.27
2019-04-06T19:40:19.566Z,106.00
2019-04-06T19:42:58.951Z,108.37
2019-04-06T19:45:36.442Z,112.50
2019-04-06T19:48:21.574Z,108.83
2019-04-06T19:50:55.412Z,112.47
2019-04-06T19:53:38.031Z,111.57
2019-04-06T19:56:23.225Z,108.90
2019-04-06T19:59:04.405Z,114.27
2019-04-06T20:01:43.029Z,116.77
2019-04-06T20:04:22.099Z,112.53
2019-04-06T20:06:58.825Z,115.30
2019-04-06T20:09:35.515Z,122.87
2019-04-06T20:12:11.444Z,119.83
2019-04-06T20:14:45.564Z,120.23
2019-04-06T20:17:16.583Z,130.23
2019-04-06T20:19:49.718Z,135.50
2019-04-06T20:22:26.335Z,137.83
2019-04-06T20:25:00.319Z,142.43
2019-04-06T20:27:37.943Z,146.07
2019-04-06T20:30:10.015Z,143.10
2019-04-06T20:32:46.833Z,156.57
2019-04-06T20:35:21.238Z,157.47
2019-04-06T20:37:58.079Z,153.90
2019-04-06T20:40:33.896Z,165.37
2019-04-06T20:43:08.429Z,151.23
2019-04-06T20:45:43.787Z,154.00
2019-04-06T20:48:24.775Z,159.43
2019-04-06T20:50:56.263Z,162.53
2019-04-06T20:53:31.792Z,160.27
2019-04-06T20:56:05.530Z,168.17
2019-04-06T20:58:37.547Z,165.17
2019-04-06T21:01:08.393Z,180.73
2019-04-06T21:03:41.494Z,166.53
2019-04-06T21:06:16.946Z,158.10
2019-04-06T21:08:51.668Z,160.37
2019-04-06T21:11:28.050Z,174.30
2019-04-06T21:13:59.658Z,179.83
2019-04-06T21:16:34.512Z,168.97
2019-04-06T21:19:12.478Z,166.03
2019-04-06T21:21:50.668Z,171.60
2019-04-06T21:24:24.483Z,173.40
2019-04-06T21:27:03.286Z,172.73
2019-04-06T21:29:41.652Z,176.27
2019-04-06T21:32:23.704Z,163.93
2019-04-06T21:35:16.440Z,171.37
2019-04-06T21:37:51.595Z,170.90
2019-04-06T21:40:51.791Z,167.03
2019-04-06T21:43:21.176Z,168.10
2019-04-06T21:45:59.391Z,182.73
2019-04-06T21:48:31.363Z,177.00
2019-04-06T21:51:03.409Z,174.20
2019-04-06T21:53:40.234Z,177.97
2019-04-06T21:56:15.677Z,163.63
2019-04-06T21:58:50.726Z,161.87
2019-04-06T22:01:25.381Z,166.27
2019-04-06T22:04:01.663Z,174.63
2019-04-06T22:06:35.800Z,157.73
2019-04-06T22:09:11.140Z,168.33
2019-04-06T22:11:46.162Z,164.87
2019-04-06T22:14:24.904Z,178.57
2019-04-06T22:16:58.372Z,170.03
2019-04-06T22:19:33.506Z,176.87
2019-04-06T22:22:08.969Z,175.23
2019-04-06T22:24:39.771Z,168.60
2019-04-06T22:27:13.172Z,172.03
2019-04-06T22:29:49.017Z,189.90
2019-04-06T22:32:34.618Z,165.23
2019-04-06T22:35:05.711Z,168.13
2019-04-06T22:37:39.615Z,168.60
2019-04-06T22:40:14.250Z,170.73
2019-04-06T22:42:48.388Z,169.73
2019-04-06T22:45:22.023Z,167.27
2019-04-06T22:47:56.838Z,182.93
2019-04-06T22:50:30.029Z,172.57
2019-04-06T22:53:12.405Z,174.53
2019-04-06T22:55:46.722Z,173.17
2019-04-06T22:58:17.434Z,161.47
2019-04-06T23:00:56.817Z,166.00
2019-04-06T23:03:59.825Z,163.13
2019-04-06T23:06:42.407Z,177.20
2019-04-06T23:09:18.470Z,163.30
2019-04-06T23:11:52.972Z,172.57
2019-04-06T23:14:42.086Z,171.63
2019-04-06T23:17:14.738Z,172.80
2019-04-06T23:19:59.262Z,176.63
2019-04-06T23:22:30.401Z,162.80
2019-04-06T23:25:05.632Z,169.57
2019-04-06T23:27:39.842Z,166.97
2019-04-06T23:30:12.223Z,171.73
2019-04-06T23:32:47.892Z,172.27
2019-04-06T23:35:18.882Z,165.00
2019-04-06T23:37:54.967Z,174.80
2019-04-06T23:40:33.773Z,181.57
2019-04-06T23:43:09.633Z,177.80
2019-04-06T23:45:45.831Z,180.90
2019-04-06T23:48:20.798Z,175.97
2019-04-06T23:50:53.627Z,175.20
2019-04-06T23:53:27.142Z,177.57
2019-04-06T23:56:02.792Z,172.50
2019-04-06T23:58:38.073Z,179.93
